MMGL/GDL METAR and TAF weather

Enter ICAO airport designator
Station Type Date Time Source
MMGL METAR 2019/04/23 03:40 UTC NOAA

MMGL 230340Z 27011KT 10SM SCT100 23/M03 A3015 RMK 8/030 CI


Station Type Date Time Source
MMGL Decoded METAR 2019/04/23 03:40 UTC NOAA

Don Miguel / Guadalaj, Mexico (MMGL) 20-31N 103-19W
Apr 22, 2019 - 11:40 PM EDT / 2019.04.23 0340 UTC
Wind: from the W (270 degrees) at 13 MPH (11 KT):0
Visibility: 10 mile(s):0
Sky conditions: partly cloudy
Temperature: 73 F (23 C)
Dew Point: 26 F (-3 C)
Relative Humidity: 17%
Pressure (altimeter): 30.15 in. Hg (1020 hPa)
ob: MMGL 230340Z 27011KT 10SM SCT100 23/M03 A3015 RMK 8/030 CI
cycle: 3

Station Type Date Time Source
MMGL TAF 2019/04/22 21:58 UTC NOAA

TAF
AMD MMGL 222051Z 2221/2324 34015G30KT P6SM SCT300 TX32/2321Z TN14/2312Z
BECMG 2303/2304 23005KT
FM231800 24010KT P6SM BKN300
TEMPO 2320/2324 24010G20KT

Example: see airport list